< Typhoon 196618 1966 Season Typhoon 196620 >
Typhoon 196619 (DORIS)
General InformationTrack Information on Google Maps || Disaster Info.ResourceGoogle EarthGE AnimationAtom FeedGeoJSON
Detalied Best Track (Time Zone = UTC)
Year Month Day Hour Lat. Long. Pressure (hPa) Wind (kt) Class Image Chart
1966 9 4 00 17.0 137.0 1008 0 2 -- Chart
1966 9 4 06 17.1 137.5 1007 0 2 -- Chart
1966 9 4 12 17.2 137.7 1006 0 2 -- Chart
1966 9 4 18 17.3 138.0 1005 0 2 -- Chart
1966 9 5 00 17.4 138.4 1005 0 2 -- Chart
1966 9 5 06 17.6 138.7 1004 0 2 -- Chart
1966 9 5 12 17.8 139.0 1004 0 2 -- Chart
1966 9 5 18 18.0 139.3 1000 0 2 -- Chart
1966 9 6 00 18.4 139.6 998 0 2 -- Chart
1966 9 6 06 18.8 139.8 996 0 2 -- Chart
1966 9 6 12 19.2 139.5 994 0 2 -- Chart
1966 9 6 18 20.3 139.0 994 0 2 -- Chart
1966 9 7 00 21.6 139.1 994 0 9 -- Chart
1966 9 7 06 23.5 139.0 992 0 9 -- Chart
1966 9 7 12 25.0 137.5 990 0 9 -- Chart
1966 9 7 18 25.5 136.1 986 0 9 -- Chart
1966 9 8 00 26.3 134.4 986 0 9 -- Chart
1966 9 8 06 27.6 133.0 984 0 9 -- Chart
1966 9 8 12 29.0 131.9 980 0 9 -- Chart
1966 9 8 18 30.5 131.7 980 0 9 -- Chart
1966 9 9 00 31.8 131.9 980 0 9 -- Chart
1966 9 9 06 33.3 132.0 988 0 9 -- Chart
1966 9 9 12 34.9 133.5 992 0 9 -- Chart
1966 9 9 18 37.0 135.0 990 0 9 -- Chart
1966 9 10 00 39.5 137.5 988 0 9 -- Chart
1966 9 10 06 40.6 141.5 990 0 9 -- Chart
1966 9 10 12 44.5 147.5 994 0 6 -- Chart
1966 9 10 18 46.0 151.5 992 0 6 -- Chart
1966 9 11 00 47.0 155.4 996 0 6 -- Chart
1966 9 11 06 48.0 161.0 994 0 6 -- Chart
1966 9 11 12 47.8 165.0 996 0 6 -- Chart
1966 9 11 18 47.2 168.1 996 0 6 -- Chart
1966 9 12 00 47.0 172.0 998 0 6 -- Chart
1966 9 12 06 45.0 181.0 996 0 6 -- Chart
Japan Meteorological Agency Best Track Data | Correction Date : 1989-06-01
< Typhoon 196618 1966 Season Typhoon 196620 >

Help